Duke Street, Reading, Berkshire, RG1 4RU, United Kingdom

Camera Oscura

Reading Town Centre Webcam

Oscura's Reading Webcam is aimed out of our top floor offices in Duke Street, central Reading town centre, Berkshire. Our camera is facing South West with a view of the Reading Oracle Shopping Centre.

Current weather conditions and forecast for Reading, Berkshire

When Temp Weather Wind Cloud Humidity Rain Snow
Now 7C Partly Cloudy 6mph W 85% 96% 0% 0%
27 May 09:00 11C Cloudy 8mph WNW 100% 89% 0% 0%
27 May 12:00 15C Showers 13mph W 60% 71% 47% 0%
27 May 15:00 16C Intermittent Rain 13mph W 93% 71% 47% 0%
27 May 18:00 15C Showers 15mph WNW 71% 74% 47% 0%
27 May 21:00 12C Fair 8mph W 38% 82% 0% 0%
28 May 00:00 9C Partly Cloudy 8mph W 76% 87% 0% 0%
28 May 03:00 8C Partly Cloudy 8mph W 88% 92% 0% 0%
28 May 06:00 7C Fair 8mph WNW 22% 96% 0% 0%
28 May 09:00 10C Fair 11mph WNW 29% 82% 0% 0%
28 May 12:00 13C Showers 8mph NW 26% 75% 95% 0%
28 May 15:00 15C Showers 6mph NW 41% 68% 95% 0%
28 May 18:00 16C Showers 8mph NW 42% 74% 37% 0%
28 May 21:00 14C Fair 6mph NW 28% 89% 0% 0%
29 May 00:00 10C Partly Cloudy 6mph WNW 53% 95% 0% 0%
29 May 03:00 8C Cloudy 6mph W 96% 94% 0% 0%
29 May 06:00 7C Intermittent Rain 4mph WSW 80% 94% 15% 0%
29 May 09:00 9C Intermittent Rain 6mph SSE 100% 96% 15% 0%
29 May 12:00 12C Intermittent Rain 6mph SSE 94% 98% 15% 0%
29 May 15:00 14C Intermittent Rain 11mph WSW 100% 94% 15% 0%
29 May 19:00 13C Intermittent Rain 11mph W 99% 94% 15% 0%
29 May 22:00 13C Intermittent Rain 11mph W 95% 94% 15% 0%
30 May 01:00 12C Partly Cloudy 8mph WSW 100% 97% 0% 0%
30 May 04:00 12C Intermittent Rain 11mph SW 100% 97% 18% 0%
30 May 07:00 13C Intermittent Rain 11mph WSW 95% 96% 18% 0%


Oscura provide website development, web server hosting, Internet services and IT Support in Reading and the surrounding area.